createdAt,value
2019-03-27T00:01:53.247Z,26.70
2019-03-27T00:04:23.576Z,28.20
2019-03-27T00:06:51.336Z,30.80
2019-03-27T00:09:17.791Z,25.30
2019-03-27T00:11:45.543Z,28.57
2019-03-27T00:14:13.768Z,30.33
2019-03-27T00:16:40.054Z,24.67
2019-03-27T00:19:10.931Z,30.90
2019-03-27T00:21:37.947Z,31.20
2019-03-27T00:24:07.603Z,27.20
2019-03-27T00:26:37.892Z,37.13
2019-03-27T00:29:04.925Z,31.43
2019-03-27T00:31:31.228Z,28.00
2019-03-27T00:33:57.723Z,25.33
2019-03-27T00:36:38.061Z,34.30
2019-03-27T00:39:07.881Z,29.80
2019-03-27T00:41:36.356Z,29.67
2019-03-27T00:44:03.814Z,25.17
2019-03-27T00:46:30.086Z,25.57
2019-03-27T00:49:00.410Z,28.67
2019-03-27T00:51:25.700Z,31.13
2019-03-27T00:53:52.053Z,29.80
2019-03-27T00:56:18.260Z,26.67
2019-03-27T00:58:45.530Z,27.03
2019-03-27T01:01:12.695Z,25.47
2019-03-27T01:03:40.233Z,28.63
2019-03-27T01:06:07.793Z,25.20
2019-03-27T01:08:35.148Z,24.53
2019-03-27T01:11:05.022Z,28.47
2019-03-27T01:13:33.401Z,29.00
2019-03-27T01:16:00.821Z,23.53
2019-03-27T01:18:27.411Z,24.67
2019-03-27T01:20:53.778Z,20.63
2019-03-27T01:23:19.940Z,34.47
2019-03-27T01:25:46.086Z,28.07
2019-03-27T01:28:12.221Z,23.13
2019-03-27T01:30:41.343Z,23.47
2019-03-27T01:33:08.468Z,30.00
2019-03-27T01:35:35.242Z,20.90
2019-03-27T01:38:01.506Z,28.60
2019-03-27T01:40:39.262Z,25.60
2019-03-27T01:43:05.607Z,21.70
2019-03-27T01:45:52.481Z,24.40
2019-03-27T01:48:09.087Z,28.60
2019-03-27T01:50:35.579Z,24.83
2019-03-27T01:53:01.886Z,23.80
2019-03-27T01:55:28.241Z,27.50
2019-03-27T01:57:54.774Z,23.60
2019-03-27T02:00:23.947Z,26.20
2019-03-27T02:02:52.245Z,24.30
2019-03-27T02:05:20.511Z,26.90
2019-03-27T02:07:49.626Z,28.50
2019-03-27T02:10:16.055Z,24.40
2019-03-27T02:12:42.392Z,28.63
2019-03-27T02:15:10.132Z,22.37
2019-03-27T02:17:36.382Z,28.13
2019-03-27T02:20:07.527Z,28.73
2019-03-27T02:22:33.895Z,20.90
2019-03-27T02:25:00.523Z,27.27
2019-03-27T02:27:27.785Z,26.97
2019-03-27T02:29:56.276Z,23.23
2019-03-27T02:32:22.389Z,26.63
2019-03-27T02:34:48.482Z,27.00
2019-03-27T02:37:18.910Z,20.70
2019-03-27T02:39:47.163Z,22.73
2019-03-27T02:42:13.893Z,23.70
2019-03-27T02:44:40.318Z,26.67
2019-03-27T02:47:06.468Z,22.50
2019-03-27T02:49:48.267Z,21.57
2019-03-27T02:52:14.475Z,23.67
2019-03-27T02:54:45.041Z,22.90
2019-03-27T02:57:13.225Z,27.87
2019-03-27T02:59:39.621Z,24.67
2019-03-27T03:02:08.232Z,31.83
2019-03-27T03:04:34.775Z,28.57
2019-03-27T03:07:03.413Z,35.10
2019-03-27T03:09:29.930Z,27.50
2019-03-27T03:12:13.069Z,33.23
2019-03-27T03:14:40.379Z,32.37
2019-03-27T03:17:16.623Z,25.63
2019-03-27T03:19:43.078Z,26.30
2019-03-27T03:22:40.773Z,28.67
2019-03-27T03:25:07.536Z,30.23
2019-03-27T03:27:34.892Z,27.70
2019-03-27T03:30:04.982Z,27.50
2019-03-27T03:32:34.921Z,36.37
2019-03-27T03:35:01.430Z,24.97
2019-03-27T03:37:28.651Z,28.73
2019-03-27T03:40:05.591Z,37.57
2019-03-27T03:42:33.322Z,29.90
2019-03-27T03:45:12.703Z,26.93
2019-03-27T03:47:40.898Z,25.90
2019-03-27T03:50:34.739Z,25.50
2019-03-27T03:53:01.240Z,33.10
2019-03-27T03:55:28.976Z,23.87
2019-03-27T03:57:56.368Z,28.20
2019-03-27T04:00:39.187Z,29.67
2019-03-27T04:03:05.587Z,29.90
2019-03-27T04:05:32.479Z,30.43
2019-03-27T04:07:58.692Z,24.93
2019-03-27T04:10:24.982Z,29.00
2019-03-27T04:12:51.456Z,27.77
2019-03-27T04:15:20.541Z,34.47
2019-03-27T04:17:47.002Z,29.10
2019-03-27T04:20:16.689Z,30.43
2019-03-27T04:22:43.323Z,32.63
2019-03-27T04:25:09.652Z,28.70
2019-03-27T04:27:36.312Z,33.93
2019-03-27T04:30:04.453Z,34.90
2019-03-27T04:32:30.597Z,31.93
2019-03-27T04:34:56.710Z,29.43
2019-03-27T04:37:24.154Z,27.23
2019-03-27T04:39:51.616Z,33.20
2019-03-27T04:42:20.819Z,31.37
2019-03-27T04:44:47.486Z,29.97
2019-03-27T04:47:31.153Z,31.53
2019-03-27T04:49:44.430Z,33.03
2019-03-27T04:52:28.610Z,49.20
2019-03-27T04:54:55.951Z,38.87
2019-03-27T04:57:23.188Z,37.43
2019-03-27T04:59:50.860Z,36.10
2019-03-27T05:02:18.316Z,30.10
2019-03-27T05:04:47.579Z,35.63
2019-03-27T05:07:14.105Z,33.97
2019-03-27T05:09:40.505Z,43.33
2019-03-27T05:12:07.351Z,32.77
2019-03-27T05:14:33.549Z,37.57
2019-03-27T05:16:59.852Z,42.70
2019-03-27T05:19:29.083Z,39.80
2019-03-27T05:21:55.457Z,35.60
2019-03-27T05:24:26.661Z,42.10
2019-03-27T05:26:54.496Z,42.63
2019-03-27T05:29:28.640Z,42.10
2019-03-27T05:31:54.681Z,43.47
2019-03-27T05:34:20.897Z,39.07
2019-03-27T05:36:47.141Z,33.70
2019-03-27T05:39:16.641Z,37.17
2019-03-27T05:41:42.859Z,38.20
2019-03-27T05:44:08.985Z,36.30
2019-03-27T05:46:36.033Z,41.97
2019-03-27T05:49:02.153Z,39.63
2019-03-27T05:51:33.718Z,41.10
2019-03-27T05:53:59.860Z,38.00
2019-03-27T05:56:26.257Z,51.70
2019-03-27T05:58:52.594Z,38.43
2019-03-27T06:01:19.137Z,46.33
2019-03-27T06:03:48.765Z,44.10
2019-03-27T06:06:14.872Z,37.63
2019-03-27T06:08:41.065Z,48.70
2019-03-27T06:11:07.428Z,45.30
2019-03-27T06:13:33.878Z,51.53
2019-03-27T06:16:03.003Z,38.47
2019-03-27T06:18:31.071Z,44.50
2019-03-27T06:20:57.684Z,43.90
2019-03-27T06:23:23.811Z,37.90
2019-03-27T06:25:50.142Z,45.60
2019-03-27T06:28:18.879Z,45.37
2019-03-27T06:30:46.415Z,43.93
2019-03-27T06:33:15.496Z,71.20
2019-03-27T06:35:45.470Z,43.23
2019-03-27T06:38:15.139Z,45.50
2019-03-27T06:40:44.186Z,38.43
2019-03-27T06:43:10.457Z,39.20
2019-03-27T06:45:39.101Z,52.40
2019-03-27T06:48:05.678Z,58.13
2019-03-27T06:50:32.866Z,56.20
2019-03-27T06:53:02.818Z,56.10
2019-03-27T06:55:31.562Z,47.53
2019-03-27T06:58:09.993Z,54.07
2019-03-27T07:00:36.966Z,61.73
2019-03-27T07:03:09.364Z,65.97
2019-03-27T07:05:37.166Z,59.87
2019-03-27T07:08:04.974Z,56.70
2019-03-27T07:10:33.054Z,51.47
2019-03-27T07:13:01.304Z,43.03
2019-03-27T07:15:29.418Z,43.83
2019-03-27T07:17:56.218Z,41.40
2019-03-27T07:20:26.030Z,51.33
2019-03-27T07:22:53.145Z,51.30
2019-03-27T07:25:19.547Z,50.20
2019-03-27T07:27:45.920Z,45.50
2019-03-27T07:30:18.296Z,41.87
2019-03-27T07:32:47.988Z,47.97
2019-03-27T07:35:19.968Z,42.77
2019-03-27T07:37:47.243Z,52.70
2019-03-27T07:40:13.791Z,47.20
2019-03-27T07:42:41.597Z,42.53
2019-03-27T07:45:11.152Z,39.13
2019-03-27T07:47:44.269Z,45.87
2019-03-27T07:50:12.636Z,61.43
2019-03-27T07:52:39.924Z,44.20
2019-03-27T07:55:18.733Z,49.13
2019-03-27T07:57:34.978Z,42.53
2019-03-27T08:00:06.235Z,44.03
2019-03-27T08:02:34.287Z,120.50
2019-03-27T08:05:01.856Z,53.23
2019-03-27T08:07:28.012Z,57.07
2019-03-27T08:10:06.118Z,40.37
2019-03-27T08:12:32.421Z,44.13
2019-03-27T08:15:00.380Z,39.77
2019-03-27T08:17:26.707Z,39.33
2019-03-27T08:19:53.289Z,39.90
2019-03-27T08:22:20.639Z,44.70
2019-03-27T08:24:48.005Z,34.97
2019-03-27T08:27:15.044Z,36.97
2019-03-27T08:29:41.698Z,42.40
2019-03-27T08:32:09.459Z,33.23
2019-03-27T08:34:37.591Z,38.83
2019-03-27T08:37:04.910Z,41.20
2019-03-27T08:39:31.038Z,39.67
2019-03-27T08:42:07.954Z,36.90
2019-03-27T08:44:34.290Z,30.63
2019-03-27T08:47:00.505Z,39.40
2019-03-27T08:49:29.947Z,32.80
2019-03-27T08:52:16.105Z,28.97
2019-03-27T08:54:45.055Z,30.67
2019-03-27T08:57:12.491Z,39.23
2019-03-27T08:59:40.246Z,40.97
2019-03-27T09:02:10.191Z,32.57
2019-03-27T09:04:39.279Z,31.83
2019-03-27T09:07:05.382Z,26.47
2019-03-27T09:09:38.995Z,32.40
2019-03-27T09:12:09.696Z,28.20
2019-03-27T09:14:36.569Z,40.50
2019-03-27T09:17:09.245Z,31.57
2019-03-27T09:19:36.497Z,27.37
2019-03-27T09:22:04.709Z,25.97
2019-03-27T09:24:31.121Z,24.07
2019-03-27T09:26:57.864Z,23.90
2019-03-27T09:29:32.944Z,24.50
2019-03-27T09:31:59.029Z,25.70
2019-03-27T09:34:25.201Z,23.00
2019-03-27T09:36:52.517Z,27.70
2019-03-27T09:39:18.577Z,18.80
2019-03-27T09:41:45.567Z,23.17
2019-03-27T09:44:11.887Z,23.10
2019-03-27T09:46:40.172Z,21.90
2019-03-27T09:49:08.232Z,26.00
2019-03-27T09:51:34.332Z,25.47
2019-03-27T09:54:24.455Z,18.13
2019-03-27T09:56:52.499Z,26.40
2019-03-27T09:59:18.679Z,26.60
2019-03-27T10:02:05.007Z,19.77
2019-03-27T10:04:33.001Z,23.17
2019-03-27T10:07:00.432Z,23.07
2019-03-27T10:09:27.897Z,24.17
2019-03-27T10:11:57.205Z,29.73
2019-03-27T10:14:23.344Z,27.93
2019-03-27T10:16:57.636Z,20.50
2019-03-27T10:19:25.754Z,19.10
2019-03-27T10:21:52.074Z,22.50
2019-03-27T10:24:20.567Z,23.80
2019-03-27T10:26:47.816Z,18.23
2019-03-27T10:29:15.068Z,18.30
2019-03-27T10:31:42.552Z,16.77
2019-03-27T10:34:11.765Z,13.10
2019-03-27T10:36:38.325Z,13.83
2019-03-27T10:39:06.358Z,8.43
2019-03-27T10:41:35.653Z,16.93
2019-03-27T10:44:01.940Z,16.60
2019-03-27T10:46:28.683Z,19.87
2019-03-27T10:49:09.090Z,18.67
2019-03-27T10:51:35.169Z,16.43
2019-03-27T10:54:01.300Z,16.97
2019-03-27T10:56:32.768Z,14.47
2019-03-27T10:58:59.265Z,15.53
2019-03-27T11:01:35.835Z,14.27
2019-03-27T11:04:02.073Z,14.27
2019-03-27T11:06:28.514Z,17.27
2019-03-27T11:09:07.619Z,15.60
2019-03-27T11:11:34.155Z,13.93
2019-03-27T11:14:01.095Z,12.70
2019-03-27T11:16:29.221Z,15.50
2019-03-27T11:19:09.427Z,12.17
2019-03-27T11:21:36.764Z,10.37
2019-03-27T11:24:04.503Z,23.13
2019-03-27T11:26:30.631Z,14.50
2019-03-27T11:28:58.820Z,16.93
2019-03-27T11:31:35.981Z,10.20
2019-03-27T11:34:03.157Z,11.10
2019-03-27T11:36:35.113Z,8.30
2019-03-27T11:39:04.356Z,10.30
2019-03-27T11:41:41.664Z,9.00
2019-03-27T11:44:12.596Z,14.40
2019-03-27T11:46:39.469Z,19.30
2019-03-27T11:49:09.933Z,23.90
2019-03-27T11:51:45.168Z,11.70
2019-03-27T11:54:13.730Z,10.73
2019-03-27T11:56:39.951Z,11.67
2019-03-27T11:59:07.304Z,12.80
2019-03-27T12:01:47.469Z,13.20
2019-03-27T12:04:13.580Z,18.13
2019-03-27T12:06:40.113Z,13.40
2019-03-27T12:09:14.605Z,31.87
2019-03-27T12:11:40.842Z,15.93
2019-03-27T12:14:12.273Z,14.47
2019-03-27T12:16:40.693Z,12.30
2019-03-27T12:19:09.383Z,13.20
2019-03-27T12:21:36.948Z,13.47
2019-03-27T12:24:05.225Z,15.23
2019-03-27T12:26:31.336Z,13.90
2019-03-27T12:29:00.337Z,14.27
2019-03-27T12:31:26.805Z,13.40
2019-03-27T12:33:53.501Z,19.90
2019-03-27T12:36:29.316Z,24.03
2019-03-27T12:39:04.414Z,12.33
2019-03-27T12:41:33.960Z,12.87
2019-03-27T12:44:02.555Z,15.03
2019-03-27T12:46:44.302Z,11.97
2019-03-27T12:49:24.392Z,12.63
2019-03-27T12:51:50.698Z,11.83
2019-03-27T12:54:18.852Z,9.27
2019-03-27T12:56:48.150Z,9.90
2019-03-27T12:59:32.188Z,10.00
2019-03-27T13:02:00.546Z,15.20
2019-03-27T13:04:28.981Z,16.13
2019-03-27T13:06:57.031Z,12.97
2019-03-27T13:09:26.668Z,14.33
2019-03-27T13:11:57.074Z,14.37
2019-03-27T13:14:25.470Z,14.03
2019-03-27T13:16:52.464Z,10.47
2019-03-27T13:19:18.618Z,11.40
2019-03-27T13:21:52.369Z,12.67
2019-03-27T13:24:26.140Z,13.63
2019-03-27T13:26:57.767Z,13.87
2019-03-27T13:29:24.000Z,16.27
2019-03-27T13:31:50.414Z,15.80
2019-03-27T13:34:22.499Z,17.13
2019-03-27T13:36:55.784Z,14.40
2019-03-27T13:39:26.113Z,12.90
2019-03-27T13:41:54.704Z,21.37
2019-03-27T13:44:35.887Z,12.00
2019-03-27T13:46:54.623Z,13.50
2019-03-27T13:49:28.153Z,15.30
2019-03-27T13:51:57.763Z,24.73
2019-03-27T13:54:25.862Z,13.93
2019-03-27T13:56:53.292Z,10.90
2019-03-27T13:59:20.428Z,12.40
2019-03-27T14:01:57.508Z,13.93
2019-03-27T14:04:36.484Z,30.97
2019-03-27T14:07:03.787Z,20.27
2019-03-27T14:09:35.493Z,14.07
2019-03-27T14:12:01.773Z,11.63
2019-03-27T14:14:28.386Z,17.27
2019-03-27T14:17:08.839Z,15.23
2019-03-27T14:19:36.883Z,16.27
2019-03-27T14:22:02.969Z,14.43
2019-03-27T14:24:30.153Z,11.50
2019-03-27T14:26:56.245Z,12.57
2019-03-27T14:29:22.353Z,20.00
2019-03-27T14:31:48.438Z,14.13
2019-03-27T14:34:29.647Z,16.40
2019-03-27T14:36:57.678Z,12.77
2019-03-27T14:39:29.954Z,11.63
2019-03-27T14:42:04.135Z,14.17
2019-03-27T14:44:32.104Z,16.03
2019-03-27T14:47:04.254Z,48.23
2019-03-27T14:49:30.704Z,20.33
2019-03-27T14:52:07.646Z,15.57
2019-03-27T14:54:26.856Z,16.67
2019-03-27T14:56:55.379Z,11.93
2019-03-27T14:59:23.457Z,17.57
2019-03-27T15:01:55.157Z,15.23
2019-03-27T15:04:21.843Z,15.57
2019-03-27T15:06:54.274Z,13.93
2019-03-27T15:09:21.114Z,13.30
2019-03-27T15:11:47.495Z,14.27
2019-03-27T15:14:14.391Z,12.63
2019-03-27T15:16:42.624Z,13.77
2019-03-27T15:19:15.351Z,12.40
2019-03-27T15:21:43.481Z,16.47
2019-03-27T15:24:09.616Z,14.90
2019-03-27T15:26:39.385Z,15.23
2019-03-27T15:29:05.713Z,12.60
2019-03-27T15:31:36.328Z,15.63
2019-03-27T15:34:04.896Z,15.20
2019-03-27T15:36:32.967Z,15.50
2019-03-27T15:39:04.322Z,17.00
2019-03-27T15:41:30.903Z,14.30
2019-03-27T15:43:57.063Z,18.37
2019-03-27T15:46:23.108Z,13.57
2019-03-27T15:48:51.503Z,15.10
2019-03-27T15:51:20.427Z,16.47
2019-03-27T15:53:47.425Z,15.30
2019-03-27T15:56:13.753Z,14.93
2019-03-27T15:58:39.852Z,14.63
2019-03-27T16:01:09.042Z,16.40
2019-03-27T16:03:48.409Z,24.90
2019-03-27T16:06:15.338Z,20.53
2019-03-27T16:08:43.345Z,16.20
2019-03-27T16:11:09.754Z,11.90
2019-03-27T16:13:38.044Z,15.37
2019-03-27T16:16:09.890Z,15.80
2019-03-27T16:18:38.911Z,17.50
2019-03-27T16:21:05.451Z,18.90
2019-03-27T16:23:34.009Z,17.60
2019-03-27T16:26:09.368Z,17.03
2019-03-27T16:28:35.564Z,17.37
2019-03-27T16:31:01.747Z,24.10
2019-03-27T16:33:27.949Z,17.80
2019-03-27T16:35:54.173Z,13.63
2019-03-27T16:38:29.912Z,50.90
2019-03-27T16:40:56.446Z,39.50
2019-03-27T16:43:23.468Z,25.80
2019-03-27T16:45:50.896Z,15.50
2019-03-27T16:48:30.169Z,16.83
2019-03-27T16:50:56.517Z,17.23
2019-03-27T16:53:22.712Z,15.30
2019-03-27T16:55:50.218Z,15.57
2019-03-27T16:58:24.238Z,19.77
2019-03-27T17:00:54.334Z,18.77
2019-03-27T17:03:22.626Z,12.23
2019-03-27T17:05:54.616Z,15.13
2019-03-27T17:08:24.610Z,14.57
2019-03-27T17:10:51.001Z,15.73
2019-03-27T17:13:18.174Z,17.03
2019-03-27T17:15:44.713Z,15.57
2019-03-27T17:18:12.169Z,20.57
2019-03-27T17:20:42.984Z,18.70
2019-03-27T17:23:28.023Z,20.50
2019-03-27T17:25:57.909Z,23.10
2019-03-27T17:28:25.889Z,21.80
2019-03-27T17:31:08.041Z,15.27
2019-03-27T17:33:36.310Z,19.97
2019-03-27T17:36:03.487Z,19.70
2019-03-27T17:38:30.000Z,18.53
2019-03-27T17:40:59.782Z,18.23
2019-03-27T17:43:30.134Z,15.20
2019-03-27T17:46:06.360Z,19.37
2019-03-27T17:48:39.419Z,19.87
2019-03-27T17:51:08.675Z,19.30
2019-03-27T17:53:36.701Z,23.77
2019-03-27T17:56:07.109Z,16.63
2019-03-27T17:58:33.673Z,18.23
2019-03-27T18:01:02.548Z,13.17
2019-03-27T18:03:34.843Z,21.70
2019-03-27T18:06:16.346Z,18.90
2019-03-27T18:08:44.338Z,12.20
2019-03-27T18:11:13.760Z,17.50
2019-03-27T18:13:40.121Z,18.93
2019-03-27T18:16:09.174Z,22.53
2019-03-27T18:18:42.590Z,26.80
2019-03-27T18:21:09.955Z,36.17
2019-03-27T18:23:45.727Z,30.23
2019-03-27T18:26:18.936Z,32.93
2019-03-27T18:28:45.040Z,20.87
2019-03-27T18:31:12.289Z,23.10
2019-03-27T18:33:39.228Z,20.40
2019-03-27T18:36:05.363Z,21.80
2019-03-27T18:38:31.427Z,50.80
2019-03-27T18:40:57.555Z,28.83
2019-03-27T18:43:25.163Z,31.90
2019-03-27T18:46:02.666Z,22.10
2019-03-27T18:48:28.940Z,32.20
2019-03-27T18:50:55.196Z,31.20
2019-03-27T18:53:23.518Z,51.73
2019-03-27T18:55:54.792Z,30.57
2019-03-27T18:58:20.979Z,29.67
2019-03-27T19:00:47.291Z,29.77
2019-03-27T19:03:15.493Z,23.87
2019-03-27T19:05:57.289Z,43.07
2019-03-27T19:08:45.375Z,30.40
2019-03-27T19:11:23.666Z,29.73
2019-03-27T19:13:50.113Z,21.27
2019-03-27T19:16:16.200Z,23.60
2019-03-27T19:18:43.309Z,25.17
2019-03-27T19:21:09.570Z,25.57
2019-03-27T19:23:37.071Z,31.87
2019-03-27T19:26:22.524Z,20.60
2019-03-27T19:28:53.619Z,19.57
2019-03-27T19:31:21.419Z,20.73
2019-03-27T19:33:49.710Z,25.63
2019-03-27T19:36:17.879Z,17.00
2019-03-27T19:38:46.351Z,25.73
2019-03-27T19:41:27.368Z,24.90
2019-03-27T19:43:57.100Z,22.67
2019-03-27T19:46:23.441Z,23.20
2019-03-27T19:48:53.481Z,26.17
2019-03-27T19:51:22.679Z,28.17
2019-03-27T19:53:50.734Z,21.93
2019-03-27T19:56:17.708Z,23.23
2019-03-27T19:58:45.959Z,29.23
2019-03-27T20:01:12.081Z,21.50
2019-03-27T20:03:51.335Z,27.40
2019-03-27T20:06:17.700Z,30.40
2019-03-27T20:08:45.722Z,24.13
2019-03-27T20:11:11.847Z,26.37
2019-03-27T20:13:39.387Z,27.93
2019-03-27T20:16:07.080Z,24.80
2019-03-27T20:18:33.107Z,23.20
2019-03-27T20:21:00.275Z,21.43
2019-03-27T20:23:27.460Z,23.80
2019-03-27T20:26:03.101Z,28.13
2019-03-27T20:28:29.421Z,24.80
2019-03-27T20:30:55.609Z,30.80
2019-03-27T20:33:21.689Z,25.20
2019-03-27T20:35:49.477Z,33.63
2019-03-27T20:38:15.632Z,27.03
2019-03-27T20:40:43.797Z,27.30
2019-03-27T20:43:09.981Z,26.83
2019-03-27T20:45:48.085Z,23.50
2019-03-27T20:48:14.663Z,27.53
2019-03-27T20:50:41.295Z,26.23
2019-03-27T20:53:13.274Z,32.77
2019-03-27T20:55:39.454Z,29.93
2019-03-27T20:58:13.351Z,25.73
2019-03-27T21:00:42.285Z,30.07
2019-03-27T21:03:19.132Z,30.90
2019-03-27T21:05:50.197Z,28.87
2019-03-27T21:08:18.427Z,24.30
2019-03-27T21:10:49.636Z,28.97
2019-03-27T21:13:16.186Z,29.90
2019-03-27T21:15:43.855Z,25.33
2019-03-27T21:18:11.233Z,23.67
2019-03-27T21:20:37.399Z,23.87
2019-03-27T21:23:04.878Z,30.20
2019-03-27T21:25:37.349Z,27.77
2019-03-27T21:28:04.024Z,31.10
2019-03-27T21:30:30.177Z,23.13
2019-03-27T21:32:56.782Z,29.10
2019-03-27T21:35:25.022Z,42.13
2019-03-27T21:37:54.323Z,27.30
2019-03-27T21:40:20.682Z,32.07
2019-03-27T21:42:51.239Z,23.00
2019-03-27T21:45:17.518Z,17.83
2019-03-27T21:48:02.279Z,22.90
2019-03-27T21:50:29.645Z,23.67
2019-03-27T21:53:00.829Z,18.90
2019-03-27T21:55:24.403Z,20.70
2019-03-27T21:57:50.922Z,20.20
2019-03-27T22:00:47.672Z,22.90
2019-03-27T22:03:17.869Z,31.97
2019-03-27T22:05:49.236Z,29.97
2019-03-27T22:08:19.279Z,32.90
2019-03-27T22:10:45.993Z,20.43
2019-03-27T22:13:12.134Z,21.97
2019-03-27T22:15:38.554Z,28.10
2019-03-27T22:18:05.118Z,23.30
2019-03-27T22:20:35.262Z,24.57
2019-03-27T22:23:01.534Z,28.50
2019-03-27T22:25:36.084Z,23.17
2019-03-27T22:27:59.759Z,26.93
2019-03-27T22:30:27.590Z,23.80
2019-03-27T22:32:56.234Z,22.00
2019-03-27T22:35:22.441Z,20.93
2019-03-27T22:37:48.679Z,22.87
2019-03-27T22:40:15.146Z,28.60
2019-03-27T22:42:57.474Z,26.50
2019-03-27T22:45:23.567Z,39.70
2019-03-27T22:47:49.631Z,34.50
2019-03-27T22:50:17.575Z,34.53
2019-03-27T22:52:43.719Z,32.90
2019-03-27T22:55:13.781Z,38.03
2019-03-27T22:57:41.944Z,32.13
2019-03-27T23:00:08.915Z,36.87
2019-03-27T23:02:35.660Z,33.50
2019-03-27T23:05:04.075Z,34.20
2019-03-27T23:07:31.323Z,32.87
2019-03-27T23:09:57.585Z,29.93
2019-03-27T23:12:23.743Z,39.50
2019-03-27T23:14:57.271Z,37.40
2019-03-27T23:17:25.593Z,33.67
2019-03-27T23:19:53.744Z,34.73
2019-03-27T23:22:19.863Z,48.20
2019-03-27T23:24:49.122Z,38.97
2019-03-27T23:27:16.799Z,39.23
2019-03-27T23:29:46.081Z,33.57
2019-03-27T23:32:13.437Z,34.17
2019-03-27T23:34:51.552Z,35.50
2019-03-27T23:37:19.485Z,32.80
2019-03-27T23:39:46.286Z,32.80
2019-03-27T23:42:16.175Z,29.67
2019-03-27T23:44:42.570Z,28.40
2019-03-27T23:47:08.646Z,38.30
2019-03-27T23:49:40.696Z,33.70
2019-03-27T23:52:06.776Z,34.00
2019-03-27T23:54:42.940Z,34.77
2019-03-27T23:57:09.038Z,31.80
2019-03-27T23:59:36.230Z,36.33
